createdAt,value
2018-07-22T00:02:15.301Z,23.05
2018-07-22T00:04:43.448Z,21.52
2018-07-22T00:07:11.832Z,20.48
2018-07-22T00:09:40.340Z,22.80
2018-07-22T00:12:08.778Z,20.60
2018-07-22T00:14:37.132Z,15.10
2018-07-22T00:17:05.573Z,13.10
2018-07-22T00:19:33.922Z,12.55
2018-07-22T00:22:02.304Z,11.22
2018-07-22T00:24:30.676Z,9.98
2018-07-22T00:26:59.123Z,10.40
2018-07-22T00:29:27.225Z,10.40
2018-07-22T00:31:55.657Z,10.48
2018-07-22T00:34:23.928Z,9.10
2018-07-22T00:36:52.311Z,10.23
2018-07-22T00:39:20.592Z,9.25
2018-07-22T00:41:48.787Z,8.88
2018-07-22T00:44:17.034Z,9.20
2018-07-22T00:46:45.451Z,8.90
2018-07-22T00:49:13.832Z,9.33
2018-07-22T00:51:42.237Z,8.85
2018-07-22T00:54:10.569Z,8.75
2018-07-22T00:56:39.017Z,8.35
2018-07-22T00:59:07.387Z,8.28
2018-07-22T01:01:35.755Z,8.75
2018-07-22T01:04:04.180Z,8.75
2018-07-22T01:06:32.557Z,8.30
2018-07-22T01:09:00.925Z,9.75
2018-07-22T01:11:29.378Z,8.03
2018-07-22T01:13:57.778Z,9.38
2018-07-22T01:16:26.116Z,8.93
2018-07-22T01:18:54.491Z,7.72
2018-07-22T01:21:22.825Z,8.43
2018-07-22T01:23:50.940Z,8.28
2018-07-22T01:26:19.378Z,8.13
2018-07-22T01:28:47.761Z,8.10
2018-07-22T01:31:16.033Z,8.08
2018-07-22T01:33:44.393Z,7.78
2018-07-22T01:36:12.857Z,9.13
2018-07-22T01:38:41.153Z,9.00
2018-07-22T01:41:09.556Z,8.77
2018-07-22T01:43:37.599Z,7.33
2018-07-22T01:46:06.063Z,6.72
2018-07-22T01:48:34.470Z,7.08
2018-07-22T01:51:02.764Z,6.83
2018-07-22T01:53:31.099Z,8.10
2018-07-22T01:55:59.520Z,7.00
2018-07-22T01:58:27.807Z,7.17
2018-07-22T02:00:55.907Z,7.10
2018-07-22T02:03:24.236Z,6.33
2018-07-22T02:05:52.612Z,6.30
2018-07-22T02:08:20.984Z,6.85
2018-07-22T02:10:49.482Z,7.10
2018-07-22T02:13:18.033Z,6.78
2018-07-22T02:15:46.340Z,5.87
2018-07-22T02:18:14.714Z,6.47
2018-07-22T02:20:43.051Z,5.60
2018-07-22T02:23:11.441Z,6.42
2018-07-22T02:25:39.877Z,7.08
2018-07-22T02:28:07.955Z,6.30
2018-07-22T02:30:36.432Z,6.80
2018-07-22T02:33:04.751Z,7.20
2018-07-22T02:38:01.373Z,5.95
2018-07-22T02:40:29.780Z,6.17
2018-07-22T02:42:58.100Z,5.95
2018-07-22T02:45:26.498Z,5.90
2018-07-22T02:47:54.673Z,6.03
2018-07-22T02:50:23.024Z,5.72
2018-07-22T02:52:51.336Z,5.65
2018-07-22T02:55:19.465Z,5.70
2018-07-22T02:57:47.786Z,5.55
2018-07-22T03:00:15.851Z,5.60
2018-07-22T03:02:44.238Z,5.97
2018-07-22T03:05:12.496Z,5.33
2018-07-22T03:07:40.833Z,6.05
2018-07-22T03:10:09.296Z,5.42
2018-07-22T03:12:39.152Z,5.15
2018-07-22T03:15:07.506Z,5.87
2018-07-22T03:17:35.902Z,6.73
2018-07-22T03:20:04.491Z,6.65
2018-07-22T03:22:32.830Z,6.33
2018-07-22T03:25:01.195Z,6.15
2018-07-22T03:27:29.535Z,6.22
2018-07-22T03:29:57.883Z,6.40
2018-07-22T03:32:26.194Z,7.00
2018-07-22T03:34:54.547Z,5.70
2018-07-22T03:37:22.893Z,6.15
2018-07-22T03:39:51.270Z,5.47
2018-07-22T03:42:19.605Z,5.40
2018-07-22T03:44:48.037Z,5.75
2018-07-22T03:47:16.423Z,6.62
2018-07-22T03:49:44.785Z,5.65
2018-07-22T03:52:14.618Z,5.30
2018-07-22T03:54:43.112Z,4.92
2018-07-22T03:57:11.490Z,5.30
2018-07-22T03:59:39.883Z,4.90
2018-07-22T04:02:08.248Z,5.45
2018-07-22T04:04:36.609Z,4.87
2018-07-22T04:07:06.564Z,5.15
2018-07-22T04:09:34.886Z,5.08
2018-07-22T04:12:03.225Z,5.78
2018-07-22T04:14:31.623Z,5.25
2018-07-22T04:16:59.687Z,5.08
2018-07-22T04:19:28.033Z,5.10
2018-07-22T04:21:56.313Z,5.53
2018-07-22T04:24:24.725Z,4.80
2018-07-22T04:26:53.062Z,4.92
2018-07-22T04:29:21.409Z,5.35
2018-07-22T04:31:49.744Z,6.20
2018-07-22T04:34:18.112Z,5.90
2018-07-22T04:36:46.388Z,6.70
2018-07-22T04:39:14.712Z,7.72
2018-07-22T04:41:42.778Z,6.78
2018-07-22T04:44:10.836Z,6.95
2018-07-22T04:46:39.257Z,7.60
2018-07-22T04:49:07.599Z,7.00
2018-07-22T04:51:36.024Z,6.95
2018-07-22T04:54:04.447Z,7.00
2018-07-22T04:56:32.779Z,6.80
2018-07-22T04:59:01.149Z,6.95
2018-07-22T05:01:29.603Z,7.37
2018-07-22T05:03:57.948Z,6.33
2018-07-22T05:06:26.533Z,7.37
2018-07-22T05:08:55.115Z,6.72
2018-07-22T05:11:23.508Z,7.12
2018-07-22T05:13:51.914Z,5.90
2018-07-22T05:16:20.327Z,6.00
2018-07-22T05:18:48.614Z,6.12
2018-07-22T05:21:17.044Z,6.30
2018-07-22T05:23:45.572Z,6.20
2018-07-22T05:26:13.956Z,6.17
2018-07-22T05:28:42.531Z,6.10
2018-07-22T05:31:11.036Z,6.00
2018-07-22T05:33:39.403Z,6.42
2018-07-22T05:36:07.862Z,6.10
2018-07-22T05:38:36.285Z,5.92
2018-07-22T05:41:04.714Z,6.80
2018-07-22T05:43:33.001Z,7.22
2018-07-22T05:46:01.424Z,5.55
2018-07-22T05:48:29.698Z,5.50
2018-07-22T05:50:58.036Z,6.05
2018-07-22T05:53:26.413Z,5.58
2018-07-22T05:55:54.867Z,5.83
2018-07-22T05:58:23.362Z,5.65
2018-07-22T06:00:51.442Z,5.22
2018-07-22T06:03:19.809Z,5.75
2018-07-22T06:05:47.847Z,4.75
2018-07-22T06:08:16.254Z,5.47
2018-07-22T06:10:44.410Z,5.20
2018-07-22T06:13:12.810Z,4.80
2018-07-22T06:15:41.189Z,5.58
2018-07-22T06:18:09.261Z,5.20
2018-07-22T06:20:37.409Z,5.00
2018-07-22T06:23:06.131Z,4.90
2018-07-22T06:25:34.509Z,4.37
2018-07-22T06:28:02.725Z,5.20
2018-07-22T06:30:31.106Z,4.85
2018-07-22T06:33:00.774Z,4.90
2018-07-22T06:35:27.921Z,5.05
2018-07-22T06:37:59.290Z,5.55
2018-07-22T06:40:27.616Z,6.10
2018-07-22T06:42:56.367Z,4.90
2018-07-22T06:45:24.627Z,5.67
2018-07-22T06:47:53.044Z,4.72
2018-07-22T06:50:21.395Z,5.53
2018-07-22T06:52:49.782Z,5.40
2018-07-22T06:55:18.137Z,4.93
2018-07-22T06:57:46.453Z,5.15
2018-07-22T07:00:15.752Z,4.50
2018-07-22T07:02:44.049Z,5.25
2018-07-22T07:05:12.419Z,5.08
2018-07-22T07:07:40.746Z,5.53
2018-07-22T07:10:09.062Z,5.55
2018-07-22T07:12:47.728Z,4.35
2018-07-22T07:15:15.813Z,4.58
2018-07-22T07:17:44.349Z,4.72
2018-07-22T07:20:12.752Z,4.10
2018-07-22T07:22:41.072Z,4.47
2018-07-22T07:25:09.407Z,5.17
2018-07-22T07:27:37.512Z,4.83
2018-07-22T07:30:06.090Z,6.92
2018-07-22T07:32:34.179Z,6.65
2018-07-22T07:35:02.573Z,6.40
2018-07-22T07:37:30.975Z,6.50
2018-07-22T07:39:59.384Z,6.17
2018-07-22T07:42:27.579Z,6.53
2018-07-22T07:44:55.636Z,5.20
2018-07-22T07:47:23.747Z,5.12
2018-07-22T07:49:52.239Z,5.83
2018-07-22T07:52:20.562Z,5.00
2018-07-22T07:54:48.632Z,4.80
2018-07-22T07:57:17.060Z,4.78
2018-07-22T07:59:45.093Z,4.55
2018-07-22T08:02:13.199Z,4.10
2018-07-22T08:04:41.231Z,3.77
2018-07-22T08:07:09.285Z,4.10
2018-07-22T08:09:37.656Z,4.47
2018-07-22T08:12:06.282Z,3.85
2018-07-22T08:14:34.367Z,4.47
2018-07-22T08:17:02.732Z,3.55
2018-07-22T08:19:31.101Z,3.25
2018-07-22T08:21:59.273Z,4.70
2018-07-22T08:24:27.338Z,3.17
2018-07-22T08:26:55.770Z,2.70
2018-07-22T08:29:28.201Z,2.83
2018-07-22T08:31:56.707Z,2.95
2018-07-22T08:34:25.144Z,2.92
2018-07-22T08:36:53.678Z,3.20
2018-07-22T08:39:24.429Z,2.55
2018-07-22T08:41:55.750Z,2.40
2018-07-22T08:44:24.090Z,2.30
2018-07-22T08:46:52.412Z,2.62
2018-07-22T08:49:21.714Z,2.20
2018-07-22T08:51:50.008Z,2.85
2018-07-22T08:54:18.493Z,2.20
2018-07-22T08:56:46.874Z,2.58
2018-07-22T08:59:15.185Z,2.92
2018-07-22T09:01:43.865Z,2.60
2018-07-22T09:04:12.620Z,2.75
2018-07-22T09:06:41.016Z,2.62
2018-07-22T09:09:10.669Z,2.60
2018-07-22T09:11:39.206Z,3.40
2018-07-22T09:14:08.129Z,3.12
2018-07-22T09:16:36.200Z,3.17
2018-07-22T09:19:04.396Z,2.60
2018-07-22T09:21:32.849Z,2.72
2018-07-22T09:24:01.281Z,3.20
2018-07-22T09:26:29.660Z,3.08
2018-07-22T09:28:58.057Z,3.00
2018-07-22T09:31:26.393Z,2.72
2018-07-22T09:33:54.516Z,3.00
2018-07-22T09:36:23.001Z,3.12
2018-07-22T09:38:52.281Z,3.10
2018-07-22T09:41:20.659Z,3.10
2018-07-22T09:43:49.160Z,2.80
2018-07-22T09:46:17.534Z,3.10
2018-07-22T09:48:46.002Z,2.70
2018-07-22T09:51:14.412Z,2.98
2018-07-22T09:53:42.834Z,3.27
2018-07-22T09:56:10.892Z,3.33
2018-07-22T09:58:39.094Z,2.90
2018-07-22T10:01:07.498Z,3.40
2018-07-22T10:03:35.968Z,3.40
2018-07-22T10:06:04.374Z,3.65
2018-07-22T10:08:33.562Z,3.42
2018-07-22T10:11:01.999Z,3.47
2018-07-22T10:13:30.401Z,3.65
2018-07-22T10:15:58.558Z,3.15
2018-07-22T10:18:28.810Z,3.22
2018-07-22T10:20:57.217Z,3.08
2018-07-22T10:23:25.656Z,3.40
2018-07-22T10:25:53.777Z,2.85
2018-07-22T10:28:22.269Z,3.27
2018-07-22T10:30:50.356Z,3.60
2018-07-22T10:33:18.797Z,2.67
2018-07-22T10:35:47.257Z,3.45
2018-07-22T10:38:15.579Z,3.27
2018-07-22T10:40:43.813Z,3.42
2018-07-22T10:43:11.964Z,3.27
2018-07-22T10:45:40.339Z,2.98
2018-07-22T10:48:08.777Z,3.00
2018-07-22T10:50:37.262Z,2.95
2018-07-22T10:53:05.947Z,3.12
2018-07-22T10:55:34.341Z,3.30
2018-07-22T10:58:02.484Z,3.10
2018-07-22T11:00:30.951Z,3.35
2018-07-22T11:02:59.424Z,3.17
2018-07-22T11:05:27.788Z,3.15
2018-07-22T11:07:57.215Z,3.10
2018-07-22T11:10:25.653Z,3.22
2018-07-22T11:12:54.058Z,2.45
2018-07-22T11:15:22.169Z,3.03
2018-07-22T11:17:51.049Z,2.62
2018-07-22T11:20:27.502Z,3.22
2018-07-22T11:22:55.918Z,2.90
2018-07-22T11:25:24.008Z,3.30
2018-07-22T11:27:52.197Z,2.60
2018-07-22T11:30:20.730Z,2.87
2018-07-22T11:32:49.132Z,3.05
2018-07-22T11:35:28.683Z,3.17
2018-07-22T11:37:56.848Z,3.22
2018-07-22T11:40:24.999Z,3.00
2018-07-22T11:42:53.398Z,3.45
2018-07-22T11:45:21.736Z,3.30
2018-07-22T11:47:50.165Z,3.47
2018-07-22T11:50:18.303Z,4.20
2018-07-22T11:52:46.667Z,3.15
2018-07-22T11:55:15.082Z,3.10
2018-07-22T11:57:43.491Z,3.27
2018-07-22T12:00:11.927Z,3.20
2018-07-22T12:02:40.274Z,3.35
2018-07-22T12:05:08.730Z,4.60
2018-07-22T12:07:37.092Z,4.17
2018-07-22T12:10:05.626Z,3.70
2018-07-22T12:12:34.125Z,4.03
2018-07-22T12:15:02.527Z,3.95
2018-07-22T12:17:30.865Z,3.35
2018-07-22T12:19:59.342Z,3.70
2018-07-22T12:22:27.737Z,4.10
2018-07-22T12:24:56.140Z,3.50
2018-07-22T12:27:24.604Z,3.95
2018-07-22T12:29:53.076Z,3.20
2018-07-22T12:32:21.155Z,4.00
2018-07-22T12:34:49.602Z,3.30
2018-07-22T12:37:17.670Z,3.50
2018-07-22T12:39:45.797Z,3.85
2018-07-22T12:42:14.168Z,4.17
2018-07-22T12:44:42.554Z,4.30
2018-07-22T12:47:10.925Z,4.40
2018-07-22T12:49:39.347Z,4.17
2018-07-22T12:52:07.766Z,4.28
2018-07-22T12:54:36.213Z,4.95
2018-07-22T12:57:05.001Z,4.40
2018-07-22T12:59:33.383Z,5.10
2018-07-22T13:02:01.547Z,5.15
2018-07-22T13:04:29.939Z,5.35
2018-07-22T13:06:58.038Z,5.28
2018-07-22T13:09:26.376Z,5.47
2018-07-22T13:11:54.808Z,6.00
2018-07-22T13:14:24.561Z,5.80
2018-07-22T13:16:52.948Z,5.87
2018-07-22T13:19:21.340Z,6.40
2018-07-22T13:21:49.455Z,5.97
2018-07-22T13:24:17.900Z,6.40
2018-07-22T13:26:46.084Z,6.47
2018-07-22T13:29:14.219Z,6.75
2018-07-22T13:31:42.605Z,6.15
2018-07-22T13:34:10.982Z,6.85
2018-07-22T13:36:39.354Z,6.95
2018-07-22T13:39:10.031Z,8.00
2018-07-22T13:41:38.667Z,7.12
2018-07-22T13:44:07.053Z,7.45
2018-07-22T13:46:35.587Z,8.80
2018-07-22T13:49:04.076Z,6.62
2018-07-22T13:51:32.399Z,8.15
2018-07-22T13:54:00.847Z,7.22
2018-07-22T13:56:29.335Z,7.22
2018-07-22T13:58:57.722Z,9.00
2018-07-22T14:01:26.160Z,7.53
2018-07-22T14:03:57.455Z,7.55
2018-07-22T14:06:25.880Z,7.45
2018-07-22T14:08:54.245Z,8.90
2018-07-22T14:11:22.688Z,9.00
2018-07-22T14:13:51.066Z,9.45
2018-07-22T14:16:19.455Z,7.25
2018-07-22T14:18:47.922Z,7.25
2018-07-22T14:21:16.274Z,8.40
2018-07-22T14:23:44.765Z,7.70
2018-07-22T14:26:13.149Z,7.05
2018-07-22T14:28:41.546Z,8.55
2018-07-22T14:31:09.938Z,8.60
2018-07-22T14:33:38.388Z,9.00
2018-07-22T14:36:06.760Z,8.30
2018-07-22T14:38:34.890Z,7.72
2018-07-22T14:41:03.448Z,6.78
2018-07-22T14:43:31.746Z,8.48
2018-07-22T14:46:00.149Z,8.15
2018-07-22T14:48:28.603Z,7.78
2018-07-22T14:50:57.005Z,7.28
2018-07-22T14:53:25.467Z,7.92
2018-07-22T14:55:53.891Z,8.93
2018-07-22T14:58:22.056Z,8.05
2018-07-22T15:00:50.373Z,8.45
2018-07-22T15:03:18.816Z,7.65
2018-07-22T15:05:46.954Z,9.30
2018-07-22T15:08:15.359Z,8.23
2018-07-22T15:10:43.755Z,9.20
2018-07-22T15:13:11.859Z,10.23
2018-07-22T15:15:40.642Z,10.85
2018-07-22T15:18:09.139Z,10.93
2018-07-22T15:20:37.638Z,10.88
2018-07-22T15:23:06.038Z,10.40
2018-07-22T15:25:34.420Z,10.40
2018-07-22T15:28:02.805Z,9.13
2018-07-22T15:30:31.266Z,7.60
2018-07-22T15:32:59.712Z,8.03
2018-07-22T15:35:28.138Z,8.83
2018-07-22T15:37:56.466Z,7.72
2018-07-22T15:40:24.862Z,7.67
2018-07-22T15:42:53.230Z,7.28
2018-07-22T15:45:21.585Z,7.67
2018-07-22T15:47:49.796Z,7.28
2018-07-22T15:50:18.157Z,7.42
2018-07-22T15:52:46.556Z,6.80
2018-07-22T15:55:15.107Z,7.03
2018-07-22T15:57:43.383Z,6.85
2018-07-22T16:00:11.765Z,6.92
2018-07-22T16:02:40.481Z,6.50
2018-07-22T16:05:08.847Z,6.83
2018-07-22T16:07:37.458Z,7.20
2018-07-22T16:10:06.264Z,6.60
2018-07-22T16:12:34.706Z,7.50
2018-07-22T16:15:03.108Z,7.12
2018-07-22T16:17:31.516Z,6.58
2018-07-22T16:20:05.141Z,6.28
2018-07-22T16:22:33.233Z,6.12
2018-07-22T16:25:01.668Z,5.87
2018-07-22T16:27:30.079Z,5.78
2018-07-22T16:29:58.574Z,5.62
2018-07-22T16:32:27.002Z,5.35
2018-07-22T16:34:55.363Z,5.35
2018-07-22T16:37:23.769Z,5.90
2018-07-22T16:39:51.892Z,5.95
2018-07-22T16:42:20.264Z,5.75
2018-07-22T16:44:48.648Z,5.97
2018-07-22T16:47:17.076Z,5.50
2018-07-22T16:49:45.431Z,5.40
2018-07-22T16:52:13.811Z,5.30
2018-07-22T16:54:42.265Z,4.85
2018-07-22T16:57:10.645Z,5.35
2018-07-22T16:59:39.105Z,5.30
2018-07-22T17:02:07.506Z,5.50
2018-07-22T17:04:35.893Z,5.35
2018-07-22T17:07:04.257Z,6.28
2018-07-22T17:09:32.867Z,5.50
2018-07-22T17:12:01.199Z,5.83
2018-07-22T17:14:29.598Z,5.40
2018-07-22T17:16:58.039Z,4.87
2018-07-22T17:19:26.438Z,4.60
2018-07-22T17:21:54.810Z,5.03
2018-07-22T17:24:22.952Z,5.20
2018-07-22T17:26:51.355Z,5.15
2018-07-22T17:29:19.466Z,5.95
2018-07-22T17:31:47.863Z,5.15
2018-07-22T17:34:16.237Z,5.45
2018-07-22T17:36:44.620Z,5.15
2018-07-22T17:39:13.053Z,5.12
2018-07-22T17:41:41.192Z,5.03
2018-07-22T17:44:09.925Z,4.53
2018-07-22T17:46:38.081Z,5.12
2018-07-22T17:49:06.241Z,5.12
2018-07-22T17:51:35.992Z,4.85
2018-07-22T17:54:04.486Z,4.80
2018-07-22T17:56:33.323Z,5.10
2018-07-22T17:59:02.832Z,5.17
2018-07-22T18:01:33.588Z,4.62
2018-07-22T18:04:04.118Z,5.30
2018-07-22T18:06:33.089Z,5.25
2018-07-22T18:09:01.639Z,4.53
2018-07-22T18:15:18.747Z,5.00
2018-07-22T18:17:46.977Z,5.22
2018-07-22T18:20:16.134Z,4.90
2018-07-22T18:22:44.649Z,5.00
2018-07-22T18:25:13.625Z,4.70
2018-07-22T18:27:42.321Z,5.10
2018-07-22T18:30:11.245Z,4.95
2018-07-22T18:32:39.712Z,4.60
2018-07-22T18:35:08.493Z,4.70
2018-07-22T18:37:37.136Z,4.50
2018-07-22T18:40:06.183Z,4.65
2018-07-22T18:42:35.338Z,4.33
2018-07-22T18:45:03.814Z,4.67
2018-07-22T18:47:32.327Z,4.10
2018-07-22T18:50:00.869Z,4.45
2018-07-22T18:52:29.419Z,4.10
2018-07-22T18:54:57.918Z,4.25
2018-07-22T18:57:26.568Z,4.47
2018-07-22T18:59:55.110Z,4.45
2018-07-22T19:02:23.482Z,4.35
2018-07-22T19:04:52.729Z,4.25
2018-07-22T19:07:21.705Z,4.47
2018-07-22T19:09:50.380Z,4.92
2018-07-22T19:12:19.050Z,4.47
2018-07-22T19:14:47.287Z,4.75
2018-07-22T19:17:16.029Z,4.45
2018-07-22T19:19:44.648Z,4.55
2018-07-22T19:22:12.897Z,4.15
2018-07-22T19:24:41.519Z,4.25
2018-07-22T19:27:10.052Z,4.60
2018-07-22T19:29:38.650Z,4.40
2018-07-22T19:32:07.724Z,4.85
2018-07-22T19:34:36.401Z,4.85
2018-07-22T19:37:05.201Z,4.05
2018-07-22T19:39:34.523Z,4.75
2018-07-22T19:42:03.316Z,4.47
2018-07-22T19:44:32.242Z,4.97
2018-07-22T19:47:00.735Z,4.17
2018-07-22T19:49:29.269Z,4.75
2018-07-22T19:51:57.857Z,4.87
2018-07-22T19:54:26.399Z,4.90
2018-07-22T19:56:55.120Z,4.45
2018-07-22T19:59:23.577Z,4.60
2018-07-22T20:01:52.342Z,4.47
2018-07-22T20:04:20.510Z,4.35
2018-07-22T20:06:48.958Z,3.98
2018-07-22T20:09:17.703Z,3.70
2018-07-22T20:11:46.260Z,4.17
2018-07-22T20:14:14.536Z,3.87
2018-07-22T20:16:42.805Z,4.20
2018-07-22T20:19:11.461Z,3.55
2018-07-22T20:21:40.097Z,3.92
2018-07-22T20:24:08.734Z,3.87
2018-07-22T20:26:36.889Z,3.42
2018-07-22T20:29:05.442Z,3.87
2018-07-22T20:31:33.887Z,3.90
2018-07-22T20:34:02.250Z,5.90
2018-07-22T20:36:30.719Z,7.72
2018-07-22T20:38:59.284Z,3.72
2018-07-22T20:41:27.743Z,3.05
2018-07-22T20:43:56.236Z,3.90
2018-07-22T20:46:24.632Z,3.98
2018-07-22T20:48:53.064Z,3.20
2018-07-22T20:51:21.232Z,3.20
2018-07-22T20:53:49.366Z,3.90
2018-07-22T20:56:17.844Z,3.30
2018-07-22T20:58:46.258Z,3.17
2018-07-22T21:01:14.369Z,3.12
2018-07-22T21:03:42.830Z,2.95
2018-07-22T21:06:11.303Z,3.37
2018-07-22T21:08:48.141Z,3.37
2018-07-22T21:11:16.721Z,3.70
2018-07-22T21:13:45.212Z,3.47
2018-07-22T21:16:13.670Z,3.87
2018-07-22T21:18:42.088Z,3.80
2018-07-22T21:21:10.545Z,3.55
2018-07-22T21:23:39.002Z,3.55
2018-07-22T21:26:07.446Z,3.97
2018-07-22T21:28:35.602Z,4.17
2018-07-22T21:31:03.970Z,4.45
2018-07-22T21:33:32.366Z,3.92
2018-07-22T21:36:00.826Z,4.53
2018-07-22T21:38:29.228Z,4.17
2018-07-22T21:40:57.664Z,4.53
2018-07-22T21:43:26.143Z,4.22
2018-07-22T21:45:54.545Z,4.10
2018-07-22T21:48:23.006Z,3.80
2018-07-22T21:50:51.459Z,4.10
2018-07-22T21:53:19.890Z,4.08
2018-07-22T21:55:48.882Z,4.20
2018-07-22T21:58:17.355Z,3.83
2018-07-22T22:00:45.831Z,4.45
2018-07-22T22:03:14.215Z,3.95
2018-07-22T22:05:42.742Z,4.25
2018-07-22T22:08:11.151Z,3.85
2018-07-22T22:10:39.487Z,4.37
2018-07-22T22:13:07.649Z,4.28
2018-07-22T22:15:36.049Z,4.00
2018-07-22T22:18:04.989Z,3.87
2018-07-22T22:20:34.121Z,3.75
2018-07-22T22:23:02.261Z,3.65
2018-07-22T22:25:30.686Z,3.27
2018-07-22T22:27:58.833Z,3.83
2018-07-22T22:30:27.245Z,3.83
2018-07-22T22:32:55.647Z,4.42
2018-07-22T22:35:24.127Z,4.07
2018-07-22T22:37:52.530Z,4.30
2018-07-22T22:40:20.897Z,3.80
2018-07-22T22:42:49.328Z,4.22
2018-07-22T22:45:17.472Z,3.97
2018-07-22T22:47:45.865Z,3.80
2018-07-22T22:50:14.295Z,3.58
2018-07-22T22:52:42.700Z,4.15
2018-07-22T22:55:11.102Z,3.85
2018-07-22T22:57:40.631Z,4.05
2018-07-22T23:00:08.736Z,4.45
2018-07-22T23:02:38.143Z,3.95
2018-07-22T23:05:07.826Z,4.42
2018-07-22T23:07:36.273Z,4.45
2018-07-22T23:10:05.177Z,4.20
2018-07-22T23:12:33.629Z,4.53
2018-07-22T23:15:02.051Z,4.08
2018-07-22T23:17:33.202Z,3.80
2018-07-22T23:20:01.323Z,4.45
2018-07-22T23:22:29.735Z,4.12
2018-07-22T23:24:57.870Z,3.60
2018-07-22T23:27:26.310Z,4.42
2018-07-22T23:29:54.422Z,4.40
2018-07-22T23:32:22.805Z,4.03
2018-07-22T23:34:51.256Z,4.50
2018-07-22T23:37:19.629Z,4.28
2018-07-22T23:39:47.750Z,3.95
2018-07-22T23:42:16.242Z,4.70
2018-07-22T23:44:44.649Z,4.50
2018-07-22T23:47:12.740Z,4.37
2018-07-22T23:49:41.191Z,4.47
2018-07-22T23:52:09.306Z,5.00
2018-07-22T23:54:37.686Z,4.15
2018-07-22T23:57:06.117Z,4.30
2018-07-22T23:59:34.286Z,5.03
